Terminal Aerodrome Forecast
Issued by NWS

Current Version | Previous Version | Text Only | Print | Product List | Glossary On
Versions: 1 2 3 4 5 6 7 8 9 10 11 12 13
000
FTUS43 KICT 230522
TAFHUT
TAF
KHUT 230522Z 2306/2406 20005KT P6SM SKC
     FM231200 27004KT P6SM SCT250
     FM231600 32004KT P6SM SCT250
     FM232000 VRB03KT P6SM SCT250
     FM232200 19004KT P6SM SCT250=

USA.gov is the U.S. government's official web portal to all federal, state and local government web resources and services.